createdAt,value
2022-07-26T00:00:04.617Z,37.86
2022-07-26T00:01:04.634Z,37.56
2022-07-26T00:02:04.646Z,37.43
2022-07-26T00:03:04.669Z,37.25
2022-07-26T00:04:04.615Z,37.15
2022-07-26T00:05:04.574Z,37.06
2022-07-26T00:06:04.570Z,37.03
2022-07-26T00:07:05.564Z,37.03
2022-07-26T00:08:04.567Z,36.83
2022-07-26T00:09:04.907Z,37.18
2022-07-26T00:10:04.533Z,38.55
2022-07-26T00:11:07.698Z,38.33
2022-07-26T00:12:04.521Z,38.13
2022-07-26T00:13:04.504Z,37.68
2022-07-26T00:14:04.507Z,37.79
2022-07-26T00:15:04.549Z,39.26
2022-07-26T00:16:04.546Z,37.69
2022-07-26T00:17:04.483Z,40.56
2022-07-26T00:18:04.498Z,40.26
2022-07-26T00:19:04.943Z,37.85
2022-07-26T00:20:04.490Z,36.94
2022-07-26T00:21:04.483Z,37.69
2022-07-26T00:22:04.467Z,38.43
2022-07-26T00:23:04.480Z,37.81
2022-07-26T00:24:04.446Z,37.21
2022-07-26T00:25:04.458Z,36.25
2022-07-26T00:26:04.432Z,35.99
2022-07-26T00:27:04.440Z,41.70
2022-07-26T00:28:04.464Z,39.16
2022-07-26T00:29:04.671Z,36.99
2022-07-26T00:30:04.426Z,38.45
2022-07-26T00:31:04.458Z,37.53
2022-07-26T00:32:04.367Z,35.91
2022-07-26T00:33:04.381Z,37.26
2022-07-26T00:34:04.356Z,36.77
2022-07-26T00:35:04.384Z,36.30
2022-07-26T00:36:04.349Z,38.50
2022-07-26T00:37:04.334Z,38.04
2022-07-26T00:38:04.342Z,36.14
2022-07-26T00:39:04.417Z,36.37
2022-07-26T00:40:04.353Z,39.15
2022-07-26T00:41:04.326Z,36.74
2022-07-26T00:42:04.299Z,37.13
2022-07-26T00:43:04.284Z,36.26
2022-07-26T00:44:04.285Z,36.85
2022-07-26T00:45:04.342Z,36.59
2022-07-26T00:46:04.351Z,36.28
2022-07-26T00:47:04.265Z,36.37
2022-07-26T00:48:04.290Z,37.22
2022-07-26T00:49:04.346Z,36.88
2022-07-26T00:50:04.320Z,37.07
2022-07-26T00:51:04.245Z,36.88
2022-07-26T00:52:04.213Z,37.02
2022-07-26T00:53:04.215Z,37.05
2022-07-26T00:54:04.866Z,37.03
2022-07-26T00:55:04.201Z,37.94
2022-07-26T00:56:04.228Z,37.60
2022-07-26T00:57:04.184Z,36.80
2022-07-26T00:58:04.192Z,36.57
2022-07-26T00:59:04.169Z,36.88
2022-07-26T01:00:04.153Z,37.20
2022-07-26T01:01:04.257Z,38.32
2022-07-26T01:02:04.262Z,42.02
2022-07-26T01:03:04.139Z,37.78
2022-07-26T01:04:04.205Z,37.29
2022-07-26T01:05:04.123Z,37.31
2022-07-26T01:06:04.163Z,39.09
2022-07-26T01:07:14.840Z,38.11
2022-07-26T01:08:06.102Z,37.30
2022-07-26T01:09:04.097Z,41.66
2022-07-26T01:10:04.097Z,37.84
2022-07-26T01:11:04.127Z,37.11
2022-07-26T01:12:04.060Z,37.01
2022-07-26T01:13:04.066Z,36.97
2022-07-26T01:14:04.063Z,37.19
2022-07-26T01:15:04.061Z,40.17
2022-07-26T01:16:04.126Z,37.01
2022-07-26T01:17:04.063Z,37.08
2022-07-26T01:18:04.046Z,38.11
2022-07-26T01:19:04.048Z,36.57
2022-07-26T01:20:04.009Z,36.72
2022-07-26T01:21:13.452Z,38.16
2022-07-26T01:22:05.034Z,37.00
2022-07-26T01:23:03.998Z,37.39
2022-07-26T01:24:04.126Z,39.71
2022-07-26T01:25:03.978Z,39.64
2022-07-26T01:26:03.974Z,38.10
2022-07-26T01:27:03.988Z,38.63
2022-07-26T01:28:03.962Z,38.28
2022-07-26T01:29:03.948Z,37.01
2022-07-26T01:30:03.937Z,37.39
2022-07-26T01:31:04.022Z,37.35
2022-07-26T01:32:03.969Z,44.36
2022-07-26T01:33:06.352Z,37.96
2022-07-26T01:34:03.907Z,38.86
2022-07-26T01:35:03.892Z,38.03
2022-07-26T01:36:03.902Z,37.10
2022-07-26T01:37:03.924Z,37.12
2022-07-26T01:38:03.897Z,37.18
2022-07-26T01:39:03.874Z,36.96
2022-07-26T01:40:03.860Z,37.45
2022-07-26T01:41:03.883Z,38.47
2022-07-26T01:42:03.853Z,39.38
2022-07-26T01:43:03.923Z,39.09
2022-07-26T01:44:03.828Z,36.99
2022-07-26T01:45:03.829Z,36.56
2022-07-26T01:46:03.871Z,37.47
2022-07-26T01:47:03.811Z,39.59
2022-07-26T01:48:03.823Z,37.17
2022-07-26T01:49:03.861Z,36.73
2022-07-26T01:50:03.794Z,37.93
2022-07-26T01:51:03.802Z,40.12
2022-07-26T01:52:03.769Z,39.45
2022-07-26T01:53:06.359Z,36.99
2022-07-26T01:54:03.763Z,36.32
2022-07-26T01:55:03.749Z,37.10
2022-07-26T01:56:03.759Z,36.97
2022-07-26T01:57:03.745Z,37.05
2022-07-26T01:58:03.777Z,37.38
2022-07-26T01:59:03.741Z,37.49
2022-07-26T02:00:03.711Z,38.13
2022-07-26T02:01:03.731Z,39.69
2022-07-26T02:02:03.824Z,37.81
2022-07-26T02:03:03.754Z,38.94
2022-07-26T02:04:03.719Z,39.51
2022-07-26T02:05:03.865Z,37.96
2022-07-26T02:06:03.692Z,37.30
2022-07-26T02:07:05.506Z,37.91
2022-07-26T02:08:03.668Z,38.35
2022-07-26T02:09:03.708Z,39.32
2022-07-26T02:10:03.657Z,38.69
2022-07-26T02:11:04.132Z,37.70
2022-07-26T02:12:03.637Z,38.75
2022-07-26T02:13:03.633Z,37.34
2022-07-26T02:14:03.648Z,37.36
2022-07-26T02:15:03.608Z,39.48
2022-07-26T02:16:03.630Z,38.64
2022-07-26T02:17:03.598Z,38.14
2022-07-26T02:18:03.601Z,41.07
2022-07-26T02:19:03.625Z,38.44
2022-07-26T02:20:03.568Z,39.51
2022-07-26T02:21:03.584Z,41.37
2022-07-26T02:22:03.560Z,38.21
2022-07-26T02:23:03.559Z,39.91
2022-07-26T02:24:03.594Z,37.93
2022-07-26T02:25:05.564Z,41.10
2022-07-26T02:26:04.557Z,38.29
2022-07-26T02:27:03.537Z,37.29
2022-07-26T02:28:03.523Z,40.60
2022-07-26T02:29:03.573Z,41.80
2022-07-26T02:30:03.501Z,40.11
2022-07-26T02:31:03.573Z,37.38
2022-07-26T02:32:03.490Z,37.58
2022-07-26T02:33:03.478Z,38.91
2022-07-26T02:34:03.476Z,37.98
2022-07-26T02:35:03.489Z,39.10
2022-07-26T02:36:03.466Z,40.98
2022-07-26T02:37:03.462Z,42.94
2022-07-26T02:38:03.452Z,38.75
2022-07-26T02:39:03.445Z,37.23
2022-07-26T02:40:03.458Z,37.49
2022-07-26T02:41:03.448Z,41.72
2022-07-26T02:42:03.417Z,38.21
2022-07-26T02:43:03.412Z,37.60
2022-07-26T02:44:03.405Z,40.02
2022-07-26T02:45:03.423Z,38.11
2022-07-26T02:46:03.397Z,39.14
2022-07-26T02:47:03.378Z,37.75
2022-07-26T02:48:03.378Z,37.50
2022-07-26T02:49:03.458Z,39.35
2022-07-26T02:50:03.405Z,40.13
2022-07-26T02:51:03.357Z,38.07
2022-07-26T02:52:03.352Z,39.51
2022-07-26T02:53:03.320Z,37.46
2022-07-26T02:54:03.329Z,38.74
2022-07-26T02:55:03.326Z,38.39
2022-07-26T02:56:03.357Z,37.98
2022-07-26T02:57:03.305Z,40.48
2022-07-26T02:58:03.362Z,39.20
2022-07-26T02:59:03.308Z,37.82
2022-07-26T03:00:04.290Z,37.10
2022-07-26T03:01:03.296Z,39.17
2022-07-26T03:02:03.314Z,40.79
2022-07-26T03:03:03.331Z,39.33
2022-07-26T03:04:03.251Z,38.43
2022-07-26T03:05:03.244Z,37.83
2022-07-26T03:06:03.277Z,38.86
2022-07-26T03:07:03.232Z,37.55
2022-07-26T03:08:03.224Z,40.17
2022-07-26T03:09:03.217Z,37.29
2022-07-26T03:10:03.211Z,40.38
2022-07-26T03:11:03.239Z,39.10
2022-07-26T03:12:03.199Z,39.43
2022-07-26T03:13:03.174Z,41.60
2022-07-26T03:14:03.178Z,40.64
2022-07-26T03:15:03.173Z,39.48
2022-07-26T03:16:03.279Z,39.90
2022-07-26T03:17:03.157Z,40.10
2022-07-26T03:18:03.153Z,42.04
2022-07-26T03:19:03.160Z,41.23
2022-07-26T03:20:03.130Z,41.38
2022-07-26T03:21:03.164Z,40.87
2022-07-26T03:22:03.110Z,41.06
2022-07-26T03:23:03.108Z,40.13
2022-07-26T03:24:03.103Z,39.91
2022-07-26T03:25:03.094Z,43.49
2022-07-26T03:26:03.103Z,40.95
2022-07-26T03:27:03.103Z,37.57
2022-07-26T03:28:03.083Z,39.85
2022-07-26T03:29:03.090Z,40.28
2022-07-26T03:30:03.062Z,41.42
2022-07-26T03:31:03.154Z,39.97
2022-07-26T03:32:03.193Z,43.40
2022-07-26T03:33:03.037Z,44.70
2022-07-26T03:34:04.107Z,42.65
2022-07-26T03:35:03.032Z,42.93
2022-07-26T03:36:03.020Z,41.36
2022-07-26T03:37:03.060Z,44.68
2022-07-26T03:38:03.010Z,42.91
2022-07-26T03:39:03.004Z,41.38
2022-07-26T03:40:03.000Z,41.38
2022-07-26T03:41:02.989Z,42.81
2022-07-26T03:42:03.055Z,39.94
2022-07-26T03:43:03.048Z,39.99
2022-07-26T03:44:02.964Z,40.50
2022-07-26T03:45:02.952Z,44.12
2022-07-26T03:46:02.974Z,41.75
2022-07-26T03:47:02.956Z,43.65
2022-07-26T03:48:02.932Z,41.86
2022-07-26T03:49:03.028Z,41.42
2022-07-26T03:50:02.903Z,43.26
2022-07-26T03:51:02.905Z,44.01
2022-07-26T03:52:02.927Z,41.56
2022-07-26T03:53:02.893Z,41.68
2022-07-26T03:54:02.887Z,40.45
2022-07-26T03:55:02.872Z,43.24
2022-07-26T03:56:02.880Z,39.68
2022-07-26T03:57:02.905Z,44.99
2022-07-26T03:58:02.872Z,44.66
2022-07-26T03:59:02.843Z,43.69
2022-07-26T04:00:02.857Z,44.64
2022-07-26T04:01:02.882Z,42.24
2022-07-26T04:02:02.993Z,39.86
2022-07-26T04:03:02.879Z,41.02
2022-07-26T04:04:02.815Z,41.97
2022-07-26T04:05:02.809Z,43.47
2022-07-26T04:06:02.787Z,45.31
2022-07-26T04:07:03.121Z,44.58
2022-07-26T04:08:02.798Z,43.09
2022-07-26T04:09:02.770Z,42.87
2022-07-26T04:10:02.781Z,42.12
2022-07-26T04:11:02.754Z,39.80
2022-07-26T04:12:02.747Z,40.89
2022-07-26T04:13:02.767Z,42.43
2022-07-26T04:14:02.732Z,43.53
2022-07-26T04:15:02.732Z,44.04
2022-07-26T04:16:02.729Z,45.15
2022-07-26T04:17:02.756Z,44.55
2022-07-26T04:18:02.726Z,43.47
2022-07-26T04:19:03.197Z,41.85
2022-07-26T04:20:02.716Z,45.58
2022-07-26T04:21:02.687Z,42.77
2022-07-26T04:22:02.675Z,41.20
2022-07-26T04:23:02.726Z,45.26
2022-07-26T04:24:02.679Z,43.56
2022-07-26T04:25:02.664Z,43.37
2022-07-26T04:26:03.391Z,44.09
2022-07-26T04:27:02.647Z,42.96
2022-07-26T04:28:02.737Z,42.47
2022-07-26T04:29:02.635Z,42.93
2022-07-26T04:30:02.637Z,42.78
2022-07-26T04:31:02.716Z,46.91
2022-07-26T04:32:02.610Z,44.62
2022-07-26T04:33:02.607Z,42.84
2022-07-26T04:34:02.599Z,43.19
2022-07-26T04:35:02.614Z,43.89
2022-07-26T04:36:02.599Z,43.93
2022-07-26T04:37:02.570Z,42.37
2022-07-26T04:38:02.579Z,44.63
2022-07-26T04:39:02.590Z,44.73
2022-07-26T04:40:02.562Z,43.67
2022-07-26T04:41:02.565Z,44.09
2022-07-26T04:42:02.530Z,42.50
2022-07-26T04:43:02.543Z,45.19
2022-07-26T04:44:02.583Z,44.79
2022-07-26T04:45:07.825Z,43.20
2022-07-26T04:46:03.568Z,43.62
2022-07-26T04:47:02.513Z,43.41
2022-07-26T04:48:02.491Z,46.50
2022-07-26T04:49:02.574Z,47.35
2022-07-26T04:50:02.488Z,43.76
2022-07-26T04:51:02.493Z,43.32
2022-07-26T04:52:03.387Z,43.71
2022-07-26T04:53:02.458Z,43.50
2022-07-26T04:54:02.492Z,46.06
2022-07-26T04:55:02.433Z,42.94
2022-07-26T04:56:02.429Z,39.92
2022-07-26T04:57:02.430Z,42.28
2022-07-26T04:58:02.412Z,42.48
2022-07-26T04:59:02.465Z,43.91
2022-07-26T05:00:20.952Z,43.45
2022-07-26T05:01:11.646Z,43.40
2022-07-26T05:02:04.499Z,44.63
2022-07-26T05:03:02.412Z,42.71
2022-07-26T05:04:02.375Z,42.39
2022-07-26T05:05:02.384Z,43.39
2022-07-26T05:06:02.346Z,45.47
2022-07-26T05:07:02.351Z,44.00
2022-07-26T05:08:02.346Z,46.11
2022-07-26T05:09:02.333Z,44.94
2022-07-26T05:10:02.343Z,42.82
2022-07-26T05:11:02.318Z,43.81
2022-07-26T05:12:02.326Z,43.54
2022-07-26T05:13:02.328Z,43.78
2022-07-26T05:14:02.290Z,44.08
2022-07-26T05:15:04.471Z,44.92
2022-07-26T05:16:02.281Z,45.56
2022-07-26T05:17:08.992Z,45.65
2022-07-26T05:18:02.261Z,46.84
2022-07-26T05:19:02.267Z,43.49
2022-07-26T05:20:03.443Z,46.03
2022-07-26T05:21:03.243Z,42.76
2022-07-26T05:22:02.225Z,44.06
2022-07-26T05:23:02.249Z,44.94
2022-07-26T05:24:02.228Z,45.98
2022-07-26T05:25:02.270Z,46.42
2022-07-26T05:26:02.211Z,44.16
2022-07-26T05:27:02.202Z,43.82
2022-07-26T05:28:02.208Z,44.18
2022-07-26T05:29:02.189Z,44.30
2022-07-26T05:30:02.241Z,42.55
2022-07-26T05:31:02.270Z,42.17
2022-07-26T05:32:02.148Z,42.67
2022-07-26T05:33:03.161Z,41.90
2022-07-26T05:34:02.144Z,43.29
2022-07-26T05:35:02.143Z,41.81
2022-07-26T05:36:02.157Z,41.98
2022-07-26T05:37:02.128Z,41.29
2022-07-26T05:38:02.158Z,43.40
2022-07-26T05:39:02.151Z,42.49
2022-07-26T05:40:02.112Z,44.21
2022-07-26T05:41:02.131Z,45.85
2022-07-26T05:42:02.077Z,44.26
2022-07-26T05:43:02.099Z,45.67
2022-07-26T05:44:02.072Z,44.33
2022-07-26T05:45:02.056Z,43.54
2022-07-26T05:46:04.464Z,42.19
2022-07-26T05:47:03.048Z,43.35
2022-07-26T05:48:02.047Z,42.87
2022-07-26T05:49:02.102Z,42.24
2022-07-26T05:50:02.045Z,41.69
2022-07-26T05:51:02.003Z,42.24
2022-07-26T05:52:03.046Z,40.39
2022-07-26T05:53:02.026Z,41.19
2022-07-26T05:54:02.024Z,44.38
2022-07-26T05:55:01.998Z,42.80
2022-07-26T05:56:01.985Z,41.21
2022-07-26T05:57:02.013Z,41.53
2022-07-26T05:58:01.963Z,43.11
2022-07-26T05:59:01.958Z,40.76
2022-07-26T06:00:01.993Z,41.99
2022-07-26T06:01:01.945Z,41.98
2022-07-26T06:02:02.006Z,42.10
2022-07-26T06:03:01.927Z,41.86
2022-07-26T06:04:01.990Z,39.42
2022-07-26T06:05:01.915Z,42.94
2022-07-26T06:06:01.899Z,41.45
2022-07-26T06:07:01.911Z,41.63
2022-07-26T06:08:01.897Z,42.99
2022-07-26T06:09:01.885Z,43.21
2022-07-26T06:10:01.888Z,42.60
2022-07-26T06:11:01.889Z,42.77
2022-07-26T06:12:01.895Z,42.82
2022-07-26T06:13:01.868Z,44.38
2022-07-26T06:14:01.842Z,43.92
2022-07-26T06:15:01.838Z,46.50
2022-07-26T06:16:01.840Z,42.78
2022-07-26T06:17:01.996Z,43.61
2022-07-26T06:18:01.832Z,41.37
2022-07-26T06:19:01.799Z,40.04
2022-07-26T06:20:01.894Z,41.84
2022-07-26T06:21:02.354Z,40.68
2022-07-26T06:22:01.826Z,42.46
2022-07-26T06:23:01.833Z,42.20
2022-07-26T06:24:01.777Z,42.52
2022-07-26T06:25:01.784Z,44.03
2022-07-26T06:26:01.767Z,43.61
2022-07-26T06:27:05.192Z,45.18
2022-07-26T06:28:01.785Z,46.73
2022-07-26T06:29:01.796Z,41.43
2022-07-26T06:30:01.741Z,42.28
2022-07-26T06:31:01.786Z,42.32
2022-07-26T06:32:01.843Z,40.93
2022-07-26T06:33:01.734Z,46.85
2022-07-26T06:34:01.709Z,43.18
2022-07-26T06:35:01.699Z,44.40
2022-07-26T06:36:01.689Z,42.51
2022-07-26T06:37:01.683Z,42.60
2022-07-26T06:38:01.730Z,40.59
2022-07-26T06:39:01.698Z,42.18
2022-07-26T06:40:01.669Z,40.96
2022-07-26T06:41:01.678Z,40.56
2022-07-26T06:42:01.649Z,40.82
2022-07-26T06:43:04.477Z,41.57
2022-07-26T06:44:02.636Z,41.62
2022-07-26T06:45:01.633Z,40.90
2022-07-26T06:46:01.670Z,42.21
2022-07-26T06:47:01.611Z,43.12
2022-07-26T06:48:01.662Z,40.87
2022-07-26T06:49:01.632Z,39.51
2022-07-26T06:50:01.683Z,39.26
2022-07-26T06:51:01.596Z,41.97
2022-07-26T06:52:01.585Z,41.70
2022-07-26T06:53:01.631Z,41.09
2022-07-26T06:54:01.563Z,41.02
2022-07-26T06:55:01.571Z,40.78
2022-07-26T06:56:01.550Z,40.91
2022-07-26T06:57:01.540Z,40.89
2022-07-26T06:58:01.536Z,41.76
2022-07-26T06:59:05.071Z,43.33
2022-07-26T07:00:02.523Z,41.19
2022-07-26T07:01:01.588Z,41.40
2022-07-26T07:02:01.643Z,39.48
2022-07-26T07:03:01.510Z,40.27
2022-07-26T07:04:01.520Z,40.62
2022-07-26T07:05:01.522Z,39.01
2022-07-26T07:06:01.470Z,40.69
2022-07-26T07:07:01.469Z,46.93
2022-07-26T07:08:01.458Z,42.80
2022-07-26T07:09:01.474Z,42.60
2022-07-26T07:10:01.453Z,42.68
2022-07-26T07:11:01.907Z,40.71
2022-07-26T07:12:10.075Z,45.95
2022-07-26T07:13:02.416Z,53.87
2022-07-26T07:14:01.443Z,43.01
2022-07-26T07:15:01.413Z,40.17
2022-07-26T07:16:01.459Z,39.15
2022-07-26T07:17:01.399Z,40.64
2022-07-26T07:18:01.382Z,42.22
2022-07-26T07:19:01.405Z,43.14
2022-07-26T07:20:01.377Z,41.65
2022-07-26T07:21:01.378Z,39.77
2022-07-26T07:22:01.353Z,40.08
2022-07-26T07:23:01.348Z,40.67
2022-07-26T07:24:01.977Z,42.45
2022-07-26T07:25:01.334Z,42.57
2022-07-26T07:26:01.359Z,41.28
2022-07-26T07:27:01.308Z,43.17
2022-07-26T07:28:02.359Z,45.76
2022-07-26T07:29:01.333Z,39.12
2022-07-26T07:30:01.293Z,38.47
2022-07-26T07:31:01.308Z,42.88
2022-07-26T07:32:03.392Z,44.84
2022-07-26T07:33:01.285Z,42.34
2022-07-26T07:34:01.255Z,42.84
2022-07-26T07:35:01.275Z,42.85
2022-07-26T07:36:01.262Z,43.63
2022-07-26T07:37:01.246Z,45.53
2022-07-26T07:38:01.237Z,37.84
2022-07-26T07:39:06.187Z,37.89
2022-07-26T07:40:03.249Z,42.69
2022-07-26T07:41:01.219Z,41.62
2022-07-26T07:42:01.204Z,41.38
2022-07-26T07:43:01.209Z,45.12
2022-07-26T07:44:01.190Z,43.10
2022-07-26T07:45:01.216Z,42.33
2022-07-26T07:46:01.175Z,44.68
2022-07-26T07:47:01.284Z,46.31
2022-07-26T07:48:01.188Z,42.30
2022-07-26T07:49:01.184Z,43.55
2022-07-26T07:50:01.186Z,43.06
2022-07-26T07:51:01.267Z,41.64
2022-07-26T07:52:01.323Z,41.46
2022-07-26T07:53:02.155Z,39.98
2022-07-26T07:54:05.157Z,44.39
2022-07-26T07:55:21.802Z,41.23
2022-07-26T07:56:03.306Z,41.77
2022-07-26T07:57:01.163Z,42.22
2022-07-26T07:58:04.258Z,42.71
2022-07-26T07:59:01.103Z,44.24
2022-07-26T08:00:01.213Z,40.81
2022-07-26T08:01:02.759Z,54.56
2022-07-26T08:02:02.538Z,45.76
2022-07-26T08:03:01.110Z,42.56
2022-07-26T08:04:01.173Z,40.93
2022-07-26T08:05:04.879Z,41.86
2022-07-26T08:06:03.059Z,40.90
2022-07-26T08:07:01.029Z,45.65
2022-07-26T08:08:01.026Z,42.41
2022-07-26T08:09:01.022Z,40.54
2022-07-26T08:10:01.001Z,42.02
2022-07-26T08:11:01.035Z,43.30
2022-07-26T08:12:01.014Z,40.07
2022-07-26T08:13:00.983Z,44.87
2022-07-26T08:14:00.984Z,40.36
2022-07-26T08:15:00.973Z,39.44
2022-07-26T08:16:02.078Z,37.38
2022-07-26T08:17:01.001Z,42.12
2022-07-26T08:18:00.945Z,38.33
2022-07-26T08:19:00.946Z,40.33
2022-07-26T08:20:00.944Z,38.62
2022-07-26T08:21:00.955Z,39.49
2022-07-26T08:22:00.913Z,38.53
2022-07-26T08:23:00.918Z,40.69
2022-07-26T08:24:00.913Z,38.62
2022-07-26T08:25:00.902Z,39.10
2022-07-26T08:26:06.287Z,44.55
2022-07-26T08:27:01.890Z,42.22
2022-07-26T08:28:03.559Z,43.61
2022-07-26T08:29:01.869Z,41.39
2022-07-26T08:30:00.858Z,41.53
2022-07-26T08:31:00.939Z,40.46
2022-07-26T08:32:00.895Z,41.94
2022-07-26T08:33:00.843Z,43.48
2022-07-26T08:34:00.915Z,40.78
2022-07-26T08:35:16.940Z,41.16
2022-07-26T08:36:01.899Z,41.64
2022-07-26T08:37:16.624Z,38.52
2022-07-26T08:38:02.876Z,40.33
2022-07-26T08:39:00.804Z,40.13
2022-07-26T08:40:00.799Z,41.93
2022-07-26T08:41:00.839Z,40.78
2022-07-26T08:42:00.768Z,37.61
2022-07-26T08:43:00.779Z,36.54
2022-07-26T08:44:00.761Z,39.15
2022-07-26T08:45:00.775Z,39.81
2022-07-26T08:46:00.746Z,38.88
2022-07-26T08:47:00.824Z,41.95
2022-07-26T08:48:17.223Z,39.58
2022-07-26T08:49:02.796Z,38.75
2022-07-26T08:50:00.716Z,36.66
2022-07-26T08:51:00.718Z,37.79
2022-07-26T08:52:00.731Z,42.85
2022-07-26T08:53:00.708Z,41.20
2022-07-26T08:54:06.046Z,39.79
2022-07-26T08:55:01.683Z,37.27
2022-07-26T08:56:08.011Z,40.08
2022-07-26T08:57:02.702Z,37.03
2022-07-26T08:58:00.675Z,36.64
2022-07-26T08:59:00.661Z,39.44
2022-07-26T09:00:00.652Z,45.26
2022-07-26T09:01:00.691Z,41.63
2022-07-26T09:02:00.677Z,38.76
2022-07-26T09:03:00.630Z,39.08
2022-07-26T09:04:00.723Z,39.96
2022-07-26T09:05:00.619Z,38.53
2022-07-26T09:06:00.611Z,37.61
2022-07-26T09:07:00.630Z,39.05
2022-07-26T09:08:00.599Z,37.97
2022-07-26T09:09:00.585Z,39.05
2022-07-26T09:10:00.581Z,38.70
2022-07-26T09:11:00.764Z,40.34
2022-07-26T09:12:00.613Z,52.44
2022-07-26T09:13:00.554Z,44.58
2022-07-26T09:14:00.542Z,40.40
2022-07-26T09:15:00.541Z,41.45
2022-07-26T09:16:00.585Z,41.50
2022-07-26T09:17:00.661Z,44.34
2022-07-26T09:18:00.517Z,45.84
2022-07-26T09:19:00.508Z,46.47
2022-07-26T09:20:00.511Z,38.59
2022-07-26T09:21:00.518Z,39.80
2022-07-26T09:22:00.492Z,42.88
2022-07-26T09:23:00.510Z,41.78
2022-07-26T09:24:00.481Z,39.50
2022-07-26T09:25:00.460Z,38.03
2022-07-26T09:26:00.467Z,39.36
2022-07-26T09:27:00.464Z,38.18
2022-07-26T09:28:00.461Z,39.61
2022-07-26T09:29:00.425Z,45.12
2022-07-26T09:30:00.435Z,46.40
2022-07-26T09:31:00.453Z,48.30
2022-07-26T09:32:00.490Z,47.64
2022-07-26T09:33:00.427Z,49.29
2022-07-26T09:34:00.403Z,46.23
2022-07-26T09:35:00.507Z,48.83
2022-07-26T09:36:00.390Z,47.48
2022-07-26T09:37:00.388Z,43.48
2022-07-26T09:38:00.426Z,40.90
2022-07-26T09:39:01.377Z,41.24
2022-07-26T09:40:00.364Z,37.74
2022-07-26T09:41:00.347Z,39.65
2022-07-26T09:42:26.042Z,39.84
2022-07-26T09:43:02.371Z,41.18
2022-07-26T09:44:00.329Z,41.95
2022-07-26T09:45:00.322Z,40.72
2022-07-26T09:46:00.319Z,38.16
2022-07-26T09:47:00.376Z,40.04
2022-07-26T09:48:00.338Z,42.01
2022-07-26T09:49:10.641Z,40.00
2022-07-26T09:50:03.139Z,40.08
2022-07-26T09:51:00.281Z,42.14
2022-07-26T09:52:00.323Z,40.83
2022-07-26T09:53:00.323Z,41.19
2022-07-26T09:54:00.328Z,39.44
2022-07-26T09:55:00.274Z,40.79
2022-07-26T09:56:00.251Z,36.55
2022-07-26T09:57:00.231Z,39.04
2022-07-26T09:58:00.292Z,41.95
2022-07-26T09:59:00.232Z,39.96
2022-07-26T10:00:00.236Z,41.13
2022-07-26T10:01:02.521Z,39.30
2022-07-26T10:02:00.271Z,39.23
2022-07-26T10:03:00.252Z,38.93
2022-07-26T10:04:00.205Z,39.74
2022-07-26T10:05:00.196Z,39.85
2022-07-26T10:06:00.183Z,40.87
2022-07-26T10:07:00.188Z,40.06
2022-07-26T10:08:00.163Z,44.51
2022-07-26T10:09:00.177Z,38.64
2022-07-26T10:10:00.172Z,38.42
2022-07-26T10:11:00.132Z,39.36
2022-07-26T10:12:00.131Z,42.19
2022-07-26T10:13:00.123Z,42.36
2022-07-26T10:14:00.136Z,41.70
2022-07-26T10:15:00.120Z,41.73
2022-07-26T10:16:00.138Z,42.40
2022-07-26T10:17:00.191Z,39.35
2022-07-26T10:18:00.084Z,42.19
2022-07-26T10:19:00.110Z,48.73
2022-07-26T10:20:00.071Z,48.34
2022-07-26T10:21:00.053Z,42.59
2022-07-26T10:22:00.059Z,40.58
2022-07-26T10:23:00.056Z,41.13
2022-07-26T10:24:00.080Z,45.30
2022-07-26T10:25:00.030Z,45.28
2022-07-26T10:26:00.254Z,39.33
2022-07-26T10:27:00.018Z,39.21
2022-07-26T10:28:00.016Z,40.52
2022-07-26T10:29:00.020Z,43.90
2022-07-26T10:29:59.993Z,44.12
2022-07-26T10:31:00.063Z,39.16
2022-07-26T10:31:59.976Z,38.33
2022-07-26T10:32:59.968Z,47.07
2022-07-26T10:34:00.006Z,42.65
2022-07-26T10:34:59.962Z,42.03
2022-07-26T10:35:59.954Z,43.83
2022-07-26T10:36:59.950Z,47.18
2022-07-26T10:37:59.941Z,43.07
2022-07-26T10:38:59.931Z,38.52
2022-07-26T10:39:59.949Z,39.25
2022-07-26T10:40:59.916Z,43.27
2022-07-26T10:41:59.918Z,45.35
2022-07-26T10:43:17.150Z,47.22
2022-07-26T10:44:00.897Z,45.41
2022-07-26T10:44:59.921Z,41.42
2022-07-26T10:45:59.949Z,39.75
2022-07-26T10:47:00.040Z,38.20
2022-07-26T10:47:59.867Z,39.75
2022-07-26T10:48:59.936Z,38.62
2022-07-26T10:49:59.877Z,44.75
2022-07-26T10:51:04.425Z,44.32
2022-07-26T10:52:01.847Z,39.94
2022-07-26T10:52:59.837Z,40.47
2022-07-26T10:53:59.845Z,41.16
2022-07-26T10:54:59.846Z,43.16
2022-07-26T10:55:59.816Z,43.10
2022-07-26T10:57:00.800Z,41.98
2022-07-26T10:57:59.788Z,41.01
2022-07-26T10:58:59.781Z,36.26
2022-07-26T10:59:59.802Z,39.96
2022-07-26T11:00:59.777Z,43.01
2022-07-26T11:01:59.832Z,39.25
2022-07-26T11:02:59.896Z,36.91
2022-07-26T11:03:59.750Z,42.40
2022-07-26T11:04:59.761Z,40.84
2022-07-26T11:05:59.715Z,41.82
2022-07-26T11:06:59.724Z,39.84
2022-07-26T11:07:59.731Z,40.99
2022-07-26T11:08:59.707Z,42.20
2022-07-26T11:09:59.719Z,42.92
2022-07-26T11:10:59.696Z,40.54
2022-07-26T11:11:59.703Z,40.63
2022-07-26T11:12:59.695Z,43.62
2022-07-26T11:13:59.670Z,42.59
2022-07-26T11:14:59.701Z,44.33
2022-07-26T11:15:59.777Z,42.22
2022-07-26T11:16:59.667Z,45.30
2022-07-26T11:17:59.657Z,44.68
2022-07-26T11:18:59.658Z,43.27
2022-07-26T11:19:59.668Z,40.52
2022-07-26T11:20:59.635Z,44.32
2022-07-26T11:21:59.638Z,44.50
2022-07-26T11:22:59.632Z,44.40
2022-07-26T11:23:59.621Z,40.51
2022-07-26T11:24:59.666Z,44.65
2022-07-26T11:26:02.322Z,40.70
2022-07-26T11:26:59.599Z,42.11
2022-07-26T11:27:59.605Z,43.63
2022-07-26T11:28:59.587Z,45.63
2022-07-26T11:29:59.620Z,41.98
2022-07-26T11:30:59.622Z,41.04
2022-07-26T11:32:04.807Z,41.21
2022-07-26T11:33:01.562Z,42.73
2022-07-26T11:33:59.545Z,44.87
2022-07-26T11:34:59.552Z,42.93
2022-07-26T11:35:59.565Z,46.96
2022-07-26T11:36:59.540Z,44.73
2022-07-26T11:38:11.067Z,41.59
2022-07-26T11:39:01.120Z,40.70
2022-07-26T11:39:59.575Z,43.05
2022-07-26T11:40:59.530Z,43.88
2022-07-26T11:41:59.499Z,45.47
2022-07-26T11:42:59.495Z,45.47
2022-07-26T11:44:02.347Z,43.92
2022-07-26T11:45:00.474Z,40.74
2022-07-26T11:45:59.520Z,40.12
2022-07-26T11:46:59.539Z,46.13
2022-07-26T11:47:59.460Z,44.45
2022-07-26T11:48:59.516Z,45.23
2022-07-26T11:50:21.839Z,48.17
2022-07-26T11:51:01.479Z,43.05
2022-07-26T11:52:00.442Z,40.93
2022-07-26T11:52:59.426Z,38.34
2022-07-26T11:53:59.407Z,39.36
2022-07-26T11:54:59.436Z,42.57
2022-07-26T11:55:59.428Z,47.16
2022-07-26T11:56:59.432Z,43.96
2022-07-26T11:57:59.397Z,40.42
2022-07-26T11:58:59.398Z,42.06
2022-07-26T11:59:59.380Z,43.70
2022-07-26T12:00:59.431Z,47.85
2022-07-26T12:01:59.392Z,42.96
2022-07-26T12:02:59.369Z,42.12
2022-07-26T12:03:59.516Z,43.32
2022-07-26T12:04:59.503Z,47.72
2022-07-26T12:05:59.369Z,42.20
2022-07-26T12:06:59.367Z,42.72
2022-07-26T12:07:59.372Z,44.42
2022-07-26T12:08:59.328Z,45.92
2022-07-26T12:09:59.332Z,42.96
2022-07-26T12:10:59.342Z,40.93
2022-07-26T12:11:59.341Z,42.32
2022-07-26T12:12:59.299Z,52.16
2022-07-26T12:13:59.295Z,39.47
2022-07-26T12:14:59.289Z,41.95
2022-07-26T12:15:59.367Z,47.07
2022-07-26T12:16:59.301Z,44.28
2022-07-26T12:17:59.280Z,45.13
2022-07-26T12:18:59.253Z,49.22
2022-07-26T12:19:59.255Z,47.41
2022-07-26T12:21:04.115Z,46.35
2022-07-26T12:22:01.259Z,47.43
2022-07-26T12:22:59.251Z,46.16
2022-07-26T12:23:59.227Z,47.04
2022-07-26T12:24:59.238Z,49.62
2022-07-26T12:25:59.232Z,45.66
2022-07-26T12:26:59.229Z,48.67
2022-07-26T12:27:59.209Z,50.00
2022-07-26T12:28:59.179Z,48.64
2022-07-26T12:29:59.227Z,51.79
2022-07-26T12:30:59.250Z,48.15
2022-07-26T12:31:59.196Z,49.33
2022-07-26T12:32:59.177Z,49.22
2022-07-26T12:33:59.163Z,45.93
2022-07-26T12:34:59.165Z,47.01
2022-07-26T12:35:59.159Z,42.81
2022-07-26T12:36:59.165Z,42.20
2022-07-26T12:37:59.172Z,41.49
2022-07-26T12:38:59.157Z,44.43
2022-07-26T12:39:59.128Z,43.40
2022-07-26T12:40:59.122Z,43.15
2022-07-26T12:41:59.141Z,45.19
2022-07-26T12:43:02.074Z,45.91
2022-07-26T12:44:00.191Z,47.94
2022-07-26T12:44:59.106Z,45.84
2022-07-26T12:45:59.232Z,41.98
2022-07-26T12:46:59.132Z,41.77
2022-07-26T12:47:59.259Z,39.92
2022-07-26T12:49:00.626Z,41.24
2022-07-26T12:50:00.070Z,39.97
2022-07-26T12:50:59.072Z,39.44
2022-07-26T12:51:59.154Z,40.32